Otagawa — JD3046 — position and weather

sailwx.info

Track history (hours):
 
Tides and Currents Weather Stations Pressure Air Temp Water Temp Dewpoint Dewpoint Depression Visibility Wind Speed Wind Dir Waves Ship Positions

Otagawa

Last reported at 2016-May-26 18:23 UTC. Time now 2016-May-28 06:01 UTC.
Position N 35°23' E 140°38'.

Length 70 m; draft 3.5 m.

Type: Ship. MMSI: 431001328.

Date/timePositionNaut miles runAvg speedWind from/ knotsBaromVisibWave heightAir tempDewpointWater temp
2016-May-26 18:23N 35°23' E 140°38'910.7
2016-May-26 17:33N 35°15' E 140°32'2512.4
2016-May-26 15:33N 34°60' E 140°09'20 8.9
2016-May-26 13:19N 34°57' E 139°45'910.3
2016-May-26 12:27N 35°05' E 139°45'9 9.8
2016-May-26 11:33N 35°14' E 139°46'9 9.4
2016-May-26 10:33N 35°23' E 139°42'10 9.9
2016-May-26 09:33N 35°31' E 139°49'6 6.5
2016-May-26 08:33N 35°37' E 139°46'0 0.0
2016-May-26 07:33N 35°37' E 139°46'0 0.0
2016-May-26 06:33N 35°37' E 139°46'0 0.0
2016-May-26 05:33N 35°37' E 139°46'0 0.0
2016-May-26 04:33N 35°37' E 139°46'1 0.9
2016-May-26 03:33N 35°36' E 139°46'0 0.0
2016-May-26 02:33N 35°36' E 139°46'0 0.0
2016-May-26 01:33N 35°36' E 139°46'3 2.8
2016-May-26 00:33N 35°34' E 139°49'1 0.9
2016-May-25 23:33N 35°34' E 139°50'0 0.0
2016-May-25 22:33N 35°34' E 139°50'5 5.0
2016-May-25 21:33N 35°30' E 139°52'1010.4
2016-May-25 20:33N 35°21' E 139°45'1010.3
2016-May-25 19:33N 35°11' E 139°47'10 9.8
2016-May-25 18:32N 35°03' E 139°40'56 3.3
2016-May-25 01:30N 35°02' E 138°31'1 0.1
2016-May-24 18:31N 35°02' E 138°32'2110.7
2016-May-24 16:33N 34°42' E 138°42'23 7.6
2016-May-24 13:33N 34°49' E 139°08'1010.0
2016-May-24 12:33N 34°55' E 139°17'9 9.5
2016-May-24 11:33N 35°01' E 139°27'10 9.6
2016-May-24 10:33N 35°05' E 139°37'10 9.7
2016-May-24 09:33N 35°12' E 139°46'9 9.0
2016-May-24 08:33N 35°21' E 139°42'4 3.8
2016-May-24 07:33N 35°24' E 139°41'1 1.2
2016-May-24 06:33N 35°23' E 139°40'0 0.0
2016-May-24 05:33N 35°23' E 139°40'0 0.0
2016-May-24 04:33N 35°23' E 139°40'0 0.1
2016-May-24 03:33N 35°23' E 139°40'0 0.1
2016-May-24 02:33N 35°23' E 139°40'0 0.1
2016-May-24 01:33N 35°23' E 139°40'0 0.0
2016-May-24 00:33N 35°23' E 139°40'5 4.7
2016-May-23 23:33N 35°19' E 139°43'9 9.3
2016-May-23 22:33N 35°10' E 139°46'1010.3
2016-May-23 21:33N 35°01' E 139°40'1110.8
2016-May-23 20:33N 34°55' E 139°30'1111.3
2016-May-23 19:33N 34°48' E 139°19'1110.8
2016-May-23 18:33N 34°42' E 139°08'37 4.1
2016-May-23 09:33N 35°02' E 138°30'0 0.0
2016-May-23 07:28N 35°02' E 138°30'0 0.0
2016-May-23 06:33N 35°02' E 138°30'0 0.0
2016-May-23 05:30N 35°02' E 138°30'0 0.0
2016-May-23 04:33N 35°02' E 138°30'0 0.0
2016-May-23 03:33N 35°02' E 138°30'0 0.0
2016-May-23 02:30N 35°02' E 138°30'0 0.0
2016-May-23 01:31N 35°02' E 138°30'0 0.0
2016-May-23 00:31N 35°02' E 138°30'0 0.0
2016-May-22 23:33N 35°02' E 138°30'0 0.0
2016-May-22 22:33N 35°02' E 138°30'0 0.0
2016-May-22 21:33N 35°02' E 138°30'0 0.0
2016-May-22 20:33N 35°02' E 138°30'0 0.0
2016-May-22 19:32N 35°02' E 138°30'0 0.0
2016-May-22 18:33N 35°02' E 138°30'0 0.0
2016-May-22 17:19N 35°02' E 138°30'0 0.0
2016-May-22 15:32N 35°02' E 138°30'0 0.0
2016-May-22 14:33N 35°02' E 138°30'0 0.0
2016-May-22 13:33N 35°02' E 138°30'0 0.0
2016-May-22 12:33N 35°02' E 138°30'0 0.0
2016-May-22 11:33N 35°02' E 138°30'0 0.0
2016-May-22 10:33N 35°02' E 138°30'0 0.0
2016-May-22 09:33N 35°02' E 138°30'0 0.0
2016-May-22 08:33N 35°02' E 138°30'0 0.0
2016-May-22 07:33N 35°02' E 138°30'0 0.0
2016-May-22 06:31N 35°02' E 138°30'0 0.0
2016-May-22 05:31N 35°02' E 138°30'0 0.0
2016-May-22 04:33N 35°02' E 138°30'0 0.0
2016-May-22 03:33N 35°02' E 138°30'0 0.0
2016-May-22 02:33N 35°02' E 138°30'0 0.0
2016-May-21 19:31N 35°02' E 138°31'28 0.8
2016-May-20 08:17N 34°34' E 138°37'5010.5
2016-May-20 03:31N 35°01' E 139°29'1110.7
2016-May-20 02:28N 35°07' E 139°40'1011.0
2016-May-20 01:33N 35°15' E 139°46'1110.8
2016-May-20 00:33N 35°26' E 139°42'1 1.1
2016-May-19 23:33N 35°26' E 139°41'1 1.1
2016-May-19 22:33N 35°27' E 139°42'0 0.0
2016-May-19 21:33N 35°27' E 139°42'0 0.0
2016-May-19 20:33N 35°27' E 139°42'0 0.0
2016-May-19 19:33N 35°27' E 139°42'0 0.0
2016-May-19 18:33N 35°27' E 139°42'0 0.0
2016-May-19 17:33N 35°27' E 139°42'0 0.0
2016-May-19 16:33N 35°27' E 139°42'0 0.0
2016-May-19 15:33N 35°27' E 139°42'0 0.0
2016-May-19 14:33N 35°27' E 139°42'0 0.0
2016-May-19 13:33N 35°27' E 139°42'0 0.0
2016-May-19 12:33N 35°27' E 139°42'0 0.0
2016-May-19 11:33N 35°27' E 139°42'0 0.0
2016-May-19 10:33N 35°27' E 139°42'0 0.0
2016-May-19 09:33N 35°27' E 139°42'0 0.1
2016-May-19 08:33N 35°27' E 139°42'0 0.0
2016-May-19 07:33N 35°27' E 139°42'0 0.0
2016-May-19 06:33N 35°27' E 139°42'4 3.6
2016-May-19 05:33N 35°29' E 139°45'5 5.3
2016-May-19 04:33N 35°24' E 139°46'9 9.3
2016-May-19 03:33N 35°15' E 139°47'9 9.4
2016-May-19 02:33N 35°06' E 139°44'6310.0
2016-May-18 20:13N 34°33' E 138°38'  
Track history (hours):
 
Tides and Currents Weather Stations Pressure Air Temp Water Temp Dewpoint Dewpoint Depression Visibility Wind Speed Wind Dir Waves Ship Positions

Otagawa

Last reported at 2016-May-26 18:23 UTC. Time now 2016-May-28 06:01 UTC.
Position N 35°23' E 140°38'.

Length 70 m; draft 3.5 m.

Type: Ship. MMSI: 431001328.

Date/timePositionNaut miles runAvg speedWind from/ knotsBaromVisibWave heightAir tempDewpointWater temp
2016-May-26 18:23N 35°23' E 140°38'910.7
2016-May-26 17:33N 35°15' E 140°32'2512.4
2016-May-26 15:33N 34°60' E 140°09'20 8.9
2016-May-26 13:19N 34°57' E 139°45'910.3
2016-May-26 12:27N 35°05' E 139°45'9 9.8
2016-May-26 11:33N 35°14' E 139°46'9 9.4
2016-May-26 10:33N 35°23' E 139°42'10 9.9
2016-May-26 09:33N 35°31' E 139°49'6 6.5
2016-May-26 08:33N 35°37' E 139°46'0 0.0
2016-May-26 07:33N 35°37' E 139°46'0 0.0
2016-May-26 06:33N 35°37' E 139°46'0 0.0
2016-May-26 05:33N 35°37' E 139°46'0 0.0
2016-May-26 04:33N 35°37' E 139°46'1 0.9
2016-May-26 03:33N 35°36' E 139°46'0 0.0
2016-May-26 02:33N 35°36' E 139°46'0 0.0
2016-May-26 01:33N 35°36' E 139°46'3 2.8
2016-May-26 00:33N 35°34' E 139°49'1 0.9
2016-May-25 23:33N 35°34' E 139°50'0 0.0
2016-May-25 22:33N 35°34' E 139°50'5 5.0
2016-May-25 21:33N 35°30' E 139°52'1010.4
2016-May-25 20:33N 35°21' E 139°45'1010.3
2016-May-25 19:33N 35°11' E 139°47'10 9.8
2016-May-25 18:32N 35°03' E 139°40'56 3.3
2016-May-25 01:30N 35°02' E 138°31'1 0.1
2016-May-24 18:31N 35°02' E 138°32'2110.7
2016-May-24 16:33N 34°42' E 138°42'23 7.6
2016-May-24 13:33N 34°49' E 139°08'1010.0
2016-May-24 12:33N 34°55' E 139°17'9 9.5
2016-May-24 11:33N 35°01' E 139°27'10 9.6
2016-May-24 10:33N 35°05' E 139°37'10 9.7
2016-May-24 09:33N 35°12' E 139°46'9 9.0
2016-May-24 08:33N 35°21' E 139°42'4 3.8
2016-May-24 07:33N 35°24' E 139°41'1 1.2
2016-May-24 06:33N 35°23' E 139°40'0 0.0
2016-May-24 05:33N 35°23' E 139°40'0 0.0
2016-May-24 04:33N 35°23' E 139°40'0 0.1
2016-May-24 03:33N 35°23' E 139°40'0 0.1
2016-May-24 02:33N 35°23' E 139°40'0 0.1
2016-May-24 01:33N 35°23' E 139°40'0 0.0
2016-May-24 00:33N 35°23' E 139°40'5 4.7
2016-May-23 23:33N 35°19' E 139°43'9 9.3
2016-May-23 22:33N 35°10' E 139°46'1010.3
2016-May-23 21:33N 35°01' E 139°40'1110.8
2016-May-23 20:33N 34°55' E 139°30'1111.3
2016-May-23 19:33N 34°48' E 139°19'1110.8
2016-May-23 18:33N 34°42' E 139°08'37 4.1
2016-May-23 09:33N 35°02' E 138°30'0 0.0
2016-May-23 07:28N 35°02' E 138°30'0 0.0
2016-May-23 06:33N 35°02' E 138°30'0 0.0
2016-May-23 05:30N 35°02' E 138°30'0 0.0
2016-May-23 04:33N 35°02' E 138°30'0 0.0
2016-May-23 03:33N 35°02' E 138°30'0 0.0
2016-May-23 02:30N 35°02' E 138°30'0 0.0
2016-May-23 01:31N 35°02' E 138°30'0 0.0
2016-May-23 00:31N 35°02' E 138°30'0 0.0
2016-May-22 23:33N 35°02' E 138°30'0 0.0
2016-May-22 22:33N 35°02' E 138°30'0 0.0
2016-May-22 21:33N 35°02' E 138°30'0 0.0
2016-May-22 20:33N 35°02' E 138°30'0 0.0
2016-May-22 19:32N 35°02' E 138°30'0 0.0
2016-May-22 18:33N 35°02' E 138°30'0 0.0
2016-May-22 17:19N 35°02' E 138°30'0 0.0
2016-May-22 15:32N 35°02' E 138°30'0 0.0
2016-May-22 14:33N 35°02' E 138°30'0 0.0
2016-May-22 13:33N 35°02' E 138°30'0 0.0
2016-May-22 12:33N 35°02' E 138°30'0 0.0
2016-May-22 11:33N 35°02' E 138°30'0 0.0
2016-May-22 10:33N 35°02' E 138°30'0 0.0
2016-May-22 09:33N 35°02' E 138°30'0 0.0
2016-May-22 08:33N 35°02' E 138°30'0 0.0
2016-May-22 07:33N 35°02' E 138°30'0 0.0
2016-May-22 06:31N 35°02' E 138°30'0 0.0
2016-May-22 05:31N 35°02' E 138°30'0 0.0
2016-May-22 04:33N 35°02' E 138°30'0 0.0
2016-May-22 03:33N 35°02' E 138°30'0 0.0
2016-May-22 02:33N 35°02' E 138°30'0 0.0
2016-May-21 19:31N 35°02' E 138°31'28 0.8
2016-May-20 08:17N 34°34' E 138°37'5010.5
2016-May-20 03:31N 35°01' E 139°29'1110.7
2016-May-20 02:28N 35°07' E 139°40'1011.0
2016-May-20 01:33N 35°15' E 139°46'1110.8
2016-May-20 00:33N 35°26' E 139°42'1 1.1
2016-May-19 23:33N 35°26' E 139°41'1 1.1
2016-May-19 22:33N 35°27' E 139°42'0 0.0
2016-May-19 21:33N 35°27' E 139°42'0 0.0
2016-May-19 20:33N 35°27' E 139°42'0 0.0
2016-May-19 19:33N 35°27' E 139°42'0 0.0
2016-May-19 18:33N 35°27' E 139°42'0 0.0
2016-May-19 17:33N 35°27' E 139°42'0 0.0
2016-May-19 16:33N 35°27' E 139°42'0 0.0
2016-May-19 15:33N 35°27' E 139°42'0 0.0
2016-May-19 14:33N 35°27' E 139°42'0 0.0
2016-May-19 13:33N 35°27' E 139°42'0 0.0
2016-May-19 12:33N 35°27' E 139°42'0 0.0
2016-May-19 11:33N 35°27' E 139°42'0 0.0
2016-May-19 10:33N 35°27' E 139°42'0 0.0
2016-May-19 09:33N 35°27' E 139°42'0 0.1
2016-May-19 08:33N 35°27' E 139°42'0 0.0
2016-May-19 07:33N 35°27' E 139°42'0 0.0
2016-May-19 06:33N 35°27' E 139°42'4 3.6
2016-May-19 05:33N 35°29' E 139°45'5 5.3
2016-May-19 04:33N 35°24' E 139°46'9 9.3
2016-May-19 03:33N 35°15' E 139°47'9 9.4
2016-May-19 02:33N 35°06' E 139°44'6310.0
2016-May-18 20:13N 34°33' E 138°38'  

Dump ship's entire track history